59.6°F
Current conditions from King Hill
Updated every 5 minutes
 
  Thursday August 21, 2014

Station Historical Data
Daily Summary for June 13, 2012 Units:  Both    English   Metric
« Previous Day
Next Day »
Daily Weekly Monthly Yearly Custom
  High: Low: Average:
Temperature: 70.2 °F /  21.2 °C 53.2 °F /  11.8 °C 62.5 °F /  16.9 °C
Dew Point: 61.4 °F /  16.3 °C 48.8 °F /  9.3 °C 56.9 °F /  13.8 °C
Humidity: 96% 59% 83%
Wind Speed: 8.0mph /  12.9km/h - 2.9mph /  4.7km/h
Wind Gust: 18.0mph /  29km/h - -
Wind- - WSW
Pressure: 30.12 in /  1019.9 hPa 29.77 in /  1008 hPa -
Precipitation: 0.22 in /  5.6 mm    
Historical Graphs
 
 
Tabular Data for June 13, 2012
Time Temperature Dew Point Pressure Wind Wind Speed Wind Gust Humidity Daily Rainfall
00:00 62.7 °F /  17.1 °C 60.3 °F /  15.7 °C 29.80in /  1009hPa SSW 5.0mph /  8km/h 14.0mph /  22.5km/h 92% 0.35in /  8.9mm
00:04 62.7 °F /  17.1 °C 60.3 °F /  15.7 °C 29.80in /  1009hPa SSW 3.0mph /  4.8km/h 14.0mph /  22.5km/h 92% 0.00in /  0mm
00:09 62.7 °F /  17.1 °C 60.3 °F /  15.7 °C 29.80in /  1009hPa SW 4.0mph /  6.4km/h 14.0mph /  22.5km/h 92% 0.00in /  0mm
00:14 62.7 °F /  17.1 °C 60.6 °F /  15.9 °C 29.80in /  1009hPa SSW 3.0mph /  4.8km/h 14.0mph /  22.5km/h 93% 0.00in /  0mm
00:19 62.7 °F /  17.1 °C 60.6 °F /  15.9 °C 29.80in /  1009hPa SSW 1.0mph /  1.6km/h 11.0mph /  17.7km/h 93% 0.00in /  0mm
00:24 62.7 °F /  17.1 °C 60.6 °F /  15.9 °C 29.80in /  1009hPa SSW 6.0mph /  9.7km/h 14.0mph /  22.5km/h 93% 0.01in /  0.3mm
00:29 62.7 °F /  17.1 °C 60.6 °F /  15.9 °C 29.79in /  1008.7hPa SW 6.0mph /  9.7km/h 16.0mph /  25.7km/h 93% 0.01in /  0.3mm
00:34 62.7 °F /  17.1 °C 60.6 °F /  15.9 °C 29.79in /  1008.7hPa SW 4.0mph /  6.4km/h 18.0mph /  29km/h 93% 0.01in /  0.3mm
00:39 62.7 °F /  17.1 °C 60.6 °F /  15.9 °C 29.79in /  1008.7hPa SW 7.0mph /  11.3km/h 18.0mph /  29km/h 93% 0.01in /  0.3mm
00:44 62.7 °F /  17.1 °C 60.3 °F /  15.7 °C 29.79in /  1008.7hPa SW 5.0mph /  8km/h 15.0mph /  24.1km/h 92% 0.01in /  0.3mm
00:49 62.8 °F /  17.1 °C 60.4 °F /  15.8 °C 29.79in /  1008.7hPa SSW 5.0mph /  8km/h 12.0mph /  19.3km/h 92% 0.01in /  0.3mm
00:54 62.8 °F /  17.1 °C 60.4 °F /  15.8 °C 29.79in /  1008.7hPa SSW 5.0mph /  8km/h 18.0mph /  29km/h 92% 0.01in /  0.3mm
00:59 62.8 °F /  17.1 °C 60.4 °F /  15.8 °C 29.79in /  1008.7hPa SSW 5.0mph /  8km/h 18.0mph /  29km/h 92% 0.01in /  0.3mm
01:04 62.8 °F /  17.1 °C 60.4 °F /  15.8 °C 29.79in /  1008.7hPa SW 4.0mph /  6.4km/h 13.0mph /  20.9km/h 92% 0.01in /  0.3mm
01:09 62.8 °F /  17.1 °C 60.4 °F /  15.8 °C 29.78in /  1008.4hPa SSW 4.0mph /  6.4km/h 14.0mph /  22.5km/h 92% 0.01in /  0.3mm
01:14 62.9 °F /  17.2 °C 60.5 °F /  15.8 °C 29.79in /  1008.7hPa SSW 6.0mph /  9.7km/h 14.0mph /  22.5km/h 92% 0.01in /  0.3mm
01:19 62.9 °F /  17.2 °C 60.5 °F /  15.8 °C 29.78in /  1008.4hPa SW 4.0mph /  6.4km/h 16.0mph /  25.7km/h 92% 0.01in /  0.3mm
01:24 62.9 °F /  17.2 °C 60.5 °F /  15.8 °C 29.79in /  1008.7hPa SW 2.0mph /  3.2km/h 16.0mph /  25.7km/h 92% 0.01in /  0.3mm
01:29 62.9 °F /  17.2 °C 60.5 °F /  15.8 °C 29.78in /  1008.4hPa SSW 6.0mph /  9.7km/h 13.0mph /  20.9km/h 92% 0.01in /  0.3mm
01:34 62.9 °F /  17.2 °C 60.5 °F /  15.8 °C 29.78in /  1008.4hPa SW 4.0mph /  6.4km/h 13.0mph /  20.9km/h 92% 0.01in /  0.3mm
01:39 62.9 °F /  17.2 °C 60.5 °F /  15.8 °C 29.78in /  1008.4hPa SW 5.0mph /  8km/h 12.0mph /  19.3km/h 92% 0.01in /  0.3mm
01:45 62.9 °F /  17.2 °C 60.5 °F /  15.8 °C 29.79in /  1008.7hPa SW 5.0mph /  8km/h 14.0mph /  22.5km/h 92% 0.01in /  0.3mm
01:54 62.9 °F /  17.2 °C 60.5 °F /  15.8 °C 29.79in /  1008.7hPa SW 3.0mph /  4.8km/h 13.0mph /  20.9km/h 92% 0.04in /  1mm
01:59 62.9 °F /  17.2 °C 60.5 °F /  15.8 °C 29.78in /  1008.4hPa SW 3.0mph /  4.8km/h 11.0mph /  17.7km/h 92% 0.05in /  1.3mm
02:04 62.8 °F /  17.1 °C 60.7 °F /  15.9 °C 29.79in /  1008.7hPa SSW 3.0mph /  4.8km/h 13.0mph /  20.9km/h 93% 0.05in /  1.3mm
02:09 62.8 °F /  17.1 °C 60.7 °F /  15.9 °C 29.79in /  1008.7hPa SSW 1.0mph /  1.6km/h 13.0mph /  20.9km/h 93% 0.06in /  1.5mm
02:14 62.7 °F /  17.1 °C 60.6 °F /  15.9 °C 29.79in /  1008.7hPa SW 2.0mph /  3.2km/h 12.0mph /  19.3km/h 93% 0.08in /  2mm
02:19 62.7 °F /  17.1 °C 60.6 °F /  15.9 °C 29.79in /  1008.7hPa SW 3.0mph /  4.8km/h 11.0mph /  17.7km/h 93% 0.10in /  2.5mm
02:24 62.7 °F /  17.1 °C 60.6 °F /  15.9 °C 29.79in /  1008.7hPa SSW 2.0mph /  3.2km/h 12.0mph /  19.3km/h 93% 0.11in /  2.8mm
02:29 62.7 °F /  17.1 °C 60.9 °F /  16.1 °C 29.79in /  1008.7hPa SSW 2.0mph /  3.2km/h 12.0mph /  19.3km/h 94% 0.11in /  2.8mm
02:34 62.6 °F /  17 °C 60.8 °F /  16 °C 29.79in /  1008.7hPa SW 3.0mph /  4.8km/h 12.0mph /  19.3km/h 94% 0.12in /  3mm
02:39 62.6 °F /  17 °C 60.8 °F /  16 °C 29.79in /  1008.7hPa SSW 6.0mph /  9.7km/h 11.0mph /  17.7km/h 94% 0.12in /  3mm
02:44 62.6 °F /  17 °C 60.8 °F /  16 °C 29.78in /  1008.4hPa SW 1.0mph /  1.6km/h 11.0mph /  17.7km/h 94% 0.12in /  3mm
02:49 62.6 °F /  17 °C 60.8 °F /  16 °C 29.78in /  1008.4hPa SSW 2.0mph /  3.2km/h 10.0mph /  16.1km/h 94% 0.12in /  3mm
02:54 62.6 °F /  17 °C 60.8 °F /  16 °C 29.79in /  1008.7hPa SSW 5.0mph /  8km/h 10.0mph /  16.1km/h 94% 0.12in /  3mm
02:59 62.6 °F /  17 °C 61.1 °F /  16.2 °C 29.78in /  1008.4hPa SSW 1.0mph /  1.6km/h 9.0mph /  14.5km/h 95% 0.12in /  3mm
03:04 62.6 °F /  17 °C 61.1 °F /  16.2 °C 29.78in /  1008.4hPa Calm   8.0mph /  12.9km/h 95% 0.12in /  3mm
03:09 62.6 °F /  17 °C 61.1 °F /  16.2 °C 29.78in /  1008.4hPa Calm   6.0mph /  9.7km/h 95% 0.12in /  3mm
03:14 62.6 °F /  17 °C 61.1 °F /  16.2 °C 29.78in /  1008.4hPa SSW 1.0mph /  1.6km/h 8.0mph /  12.9km/h 95% 0.12in /  3mm
03:19 62.6 °F /  17 °C 61.1 °F /  16.2 °C 29.78in /  1008.4hPa SSW 1.0mph /  1.6km/h 8.0mph /  12.9km/h 95% 0.12in /  3mm
03:24 62.6 °F /  17 °C 61.1 °F /  16.2 °C 29.78in /  1008.4hPa SW 2.0mph /  3.2km/h 7.0mph /  11.3km/h 95% 0.12in /  3mm
03:29 62.5 °F /  16.9 °C 61.0 °F /  16.1 °C 29.78in /  1008.4hPa SW 1.0mph /  1.6km/h 7.0mph /  11.3km/h 95% 0.12in /  3mm
03:34 62.5 °F /  16.9 °C 61.0 °F /  16.1 °C 29.78in /  1008.4hPa SW 2.0mph /  3.2km/h 9.0mph /  14.5km/h 95% 0.12in /  3mm
03:39 62.5 °F /  16.9 °C 61.0 °F /  16.1 °C 29.78in /  1008.4hPa SW 2.0mph /  3.2km/h 10.0mph /  16.1km/h 95% 0.12in /  3mm
03:44 62.5 °F /  16.9 °C 61.0 °F /  16.1 °C 29.78in /  1008.4hPa SW 1.0mph /  1.6km/h 10.0mph /  16.1km/h 95% 0.12in /  3mm
03:49 62.4 °F /  16.9 °C 60.9 °F /  16.1 °C 29.78in /  1008.4hPa SW 1.0mph /  1.6km/h 7.0mph /  11.3km/h 95% 0.12in /  3mm
03:54 62.4 °F /  16.9 °C 60.9 °F /  16.1 °C 29.78in /  1008.4hPa SSW 1.0mph /  1.6km/h 7.0mph /  11.3km/h 95% 0.12in /  3mm
03:59 62.4 °F /  16.9 °C 60.9 °F /  16.1 °C 29.77in /  1008hPa SSW 2.0mph /  3.2km/h 7.0mph /  11.3km/h 95% 0.12in /  3mm
04:04 62.4 °F /  16.9 °C 60.9 °F /  16.1 °C 29.77in /  1008hPa SSW 3.0mph /  4.8km/h 7.0mph /  11.3km/h 95% 0.12in /  3mm
04:09 62.3 °F /  16.8 °C 60.9 °F /  16.1 °C 29.77in /  1008hPa SSW 3.0mph /  4.8km/h 7.0mph /  11.3km/h 95% 0.12in /  3mm
04:14 62.3 °F /  16.8 °C 61.1 °F /  16.2 °C 29.78in /  1008.4hPa SSW 2.0mph /  3.2km/h 6.0mph /  9.7km/h 96% 0.12in /  3mm
04:19 62.4 °F /  16.9 °C 61.2 °F /  16.2 °C 29.78in /  1008.4hPa SW 3.0mph /  4.8km/h 9.0mph /  14.5km/h 96% 0.12in /  3mm
04:24 62.4 °F /  16.9 °C 61.2 °F /  16.2 °C 29.78in /  1008.4hPa SW 1.0mph /  1.6km/h 9.0mph /  14.5km/h 96% 0.12in /  3mm
04:29 62.4 °F /  16.9 °C 61.2 °F /  16.2 °C 29.78in /  1008.4hPa SW 2.0mph /  3.2km/h 7.0mph /  11.3km/h 96% 0.12in /  3mm
04:34 62.4 °F /  16.9 °C 61.2 °F /  16.2 °C 29.78in /  1008.4hPa SSW 2.0mph /  3.2km/h 7.0mph /  11.3km/h 96% 0.12in /  3mm
04:39 62.4 °F /  16.9 °C 61.2 °F /  16.2 °C 29.78in /  1008.4hPa SW 2.0mph /  3.2km/h 6.0mph /  9.7km/h 96% 0.12in /  3mm
04:44 62.5 °F /  16.9 °C 61.3 °F /  16.3 °C 29.79in /  1008.7hPa SW 2.0mph /  3.2km/h 7.0mph /  11.3km/h 96% 0.12in /  3mm
04:49 62.5 °F /  16.9 °C 61.3 °F /  16.3 °C 29.79in /  1008.7hPa Calm   8.0mph /  12.9km/h 96% 0.12in /  3mm
04:54 62.5 °F /  16.9 °C 61.3 °F /  16.3 °C 29.79in /  1008.7hPa Calm   8.0mph /  12.9km/h 96% 0.12in /  3mm
04:59 62.5 °F /  16.9 °C 61.3 °F /  16.3 °C 29.79in /  1008.7hPa Calm   7.0mph /  11.3km/h 96% 0.12in /  3mm
05:04 62.5 °F /  16.9 °C 61.3 °F /  16.3 °C 29.80in /  1009hPa SW 1.0mph /  1.6km/h 7.0mph /  11.3km/h 96% 0.12in /  3mm
05:09 62.5 °F /  16.9 °C 61.3 °F /  16.3 °C 29.80in /  1009hPa SW 1.0mph /  1.6km/h 7.0mph /  11.3km/h 96% 0.12in /  3mm
05:14 62.5 °F /  16.9 °C 61.3 °F /  16.3 °C 29.80in /  1009hPa SW 1.0mph /  1.6km/h 7.0mph /  11.3km/h 96% 0.12in /  3mm
05:19 62.5 °F /  16.9 °C 61.3 °F /  16.3 °C 29.81in /  1009.4hPa SW 1.0mph /  1.6km/h 6.0mph /  9.7km/h 96% 0.12in /  3mm
05:24 62.5 °F /  16.9 °C 61.3 °F /  16.3 °C 29.81in /  1009.4hPa SW 3.0mph /  4.8km/h 8.0mph /  12.9km/h 96% 0.12in /  3mm
05:29 62.6 °F /  17 °C 61.4 °F /  16.3 °C 29.81in /  1009.4hPa SSW 2.0mph /  3.2km/h 8.0mph /  12.9km/h 96% 0.12in /  3mm
05:34 62.6 °F /  17 °C 61.4 °F /  16.3 °C 29.81in /  1009.4hPa SW 2.0mph /  3.2km/h 7.0mph /  11.3km/h 96% 0.13in /  3.3mm
05:39 62.6 °F /  17 °C 61.4 °F /  16.3 °C 29.81in /  1009.4hPa SW 1.0mph /  1.6km/h 9.0mph /  14.5km/h 96% 0.13in /  3.3mm
05:44 62.6 °F /  17 °C 61.4 °F /  16.3 °C 29.82in /  1009.7hPa SW 3.0mph /  4.8km/h 9.0mph /  14.5km/h 96% 0.14in /  3.6mm
05:49 62.6 °F /  17 °C 61.4 °F /  16.3 °C 29.82in /  1009.7hPa SW 1.0mph /  1.6km/h 8.0mph /  12.9km/h 96% 0.18in /  4.6mm
05:54 62.6 °F /  17 °C 61.4 °F /  16.3 °C 29.82in /  1009.7hPa SW 3.0mph /  4.8km/h 8.0mph /  12.9km/h 96% 0.18in /  4.6mm
05:59 62.6 °F /  17 °C 61.4 °F /  16.3 °C 29.83in /  1010hPa Calm   8.0mph /  12.9km/h 96% 0.20in /  5.1mm
06:04 62.6 °F /  17 °C 61.4 °F /  16.3 °C 29.83in /  1010hPa West 1.0mph /  1.6km/h 8.0mph /  12.9km/h 96% 0.21in /  5.3mm
06:09 62.4 °F /  16.9 °C 61.2 °F /  16.2 °C 29.84in /  1010.4hPa WSW 5.0mph /  8km/h 14.0mph /  22.5km/h 96% 0.22in /  5.6mm
06:14 62.2 °F /  16.8 °C 61.0 °F /  16.1 °C 29.84in /  1010.4hPa West 4.0mph /  6.4km/h 14.0mph /  22.5km/h 96% 0.22in /  5.6mm
06:19 61.9 °F /  16.6 °C 60.7 °F /  15.9 °C 29.84in /  1010.4hPa West 4.0mph /  6.4km/h 12.0mph /  19.3km/h 96% 0.22in /  5.6mm
06:24 61.8 °F /  16.6 °C 60.6 °F /  15.9 °C 29.85in /  1010.7hPa WNW 2.0mph /  3.2km/h 10.0mph /  16.1km/h 96% 0.22in /  5.6mm
06:29 61.8 °F /  16.6 °C 60.6 °F /  15.9 °C 29.85in /  1010.7hPa WSW 3.0mph /  4.8km/h 8.0mph /  12.9km/h 96% 0.22in /  5.6mm
06:34 61.8 °F /  16.6 °C 60.6 °F /  15.9 °C 29.85in /  1010.7hPa WNW 3.0mph /  4.8km/h 8.0mph /  12.9km/h 96% 0.22in /  5.6mm
06:39 61.8 °F /  16.6 °C 60.6 °F /  15.9 °C 29.85in /  1010.7hPa WNW 3.0mph /  4.8km/h 9.0mph /  14.5km/h 96% 0.22in /  5.6mm
06:44 62.0 °F /  16.7 °C 60.8 °F /  16 °C 29.85in /  1010.7hPa WSW 2.0mph /  3.2km/h 9.0mph /  14.5km/h 96% 0.22in /  5.6mm
06:49 62.1 °F /  16.7 °C 60.9 °F /  16.1 °C 29.86in /  1011.1hPa WNW 2.0mph /  3.2km/h 8.0mph /  12.9km/h 96% 0.22in /  5.6mm
06:54 62.1 °F /  16.7 °C 60.9 °F /  16.1 °C 29.86in /  1011.1hPa West 3.0mph /  4.8km/h 6.0mph /  9.7km/h 96% 0.22in /  5.6mm
07:04 61.3 °F /  16.3 °C 59.9 °F /  15.5 °C 29.86in /  1011.1hPa WNW 3.0mph /  4.8km/h 7.0mph /  11.3km/h 95% 0.22in /  5.6mm
07:09 60.9 °F /  16.1 °C 59.5 °F /  15.3 °C 29.87in /  1011.4hPa West 3.0mph /  4.8km/h 9.0mph /  14.5km/h 95% 0.22in /  5.6mm
07:14 60.7 °F /  15.9 °C 59.3 °F /  15.2 °C 29.87in /  1011.4hPa West 4.0mph /  6.4km/h 9.0mph /  14.5km/h 95% 0.22in /  5.6mm
07:19 60.5 °F /  15.8 °C 59.1 °F /  15.1 °C 29.87in /  1011.4hPa West 4.0mph /  6.4km/h 10.0mph /  16.1km/h 95% 0.22in /  5.6mm
07:24 60.5 °F /  15.8 °C 58.8 °F /  14.9 °C 29.88in /  1011.7hPa Calm   10.0mph /  16.1km/h 94% 0.22in /  5.6mm
07:29 60.5 °F /  15.8 °C 58.8 °F /  14.9 °C 29.88in /  1011.7hPa Calm   8.0mph /  12.9km/h 94% 0.22in /  5.6mm
07:34 60.4 °F /  15.8 °C 58.4 °F /  14.7 °C 29.88in /  1011.7hPa NW 1.0mph /  1.6km/h 7.0mph /  11.3km/h 93% 0.22in /  5.6mm
07:39 60.4 °F /  15.8 °C 58.4 °F /  14.7 °C 29.89in /  1012.1hPa Calm   7.0mph /  11.3km/h 93% 0.22in /  5.6mm
07:44 60.4 °F /  15.8 °C 58.4 °F /  14.7 °C 29.89in /  1012.1hPa Calm     93% 0.22in /  5.6mm
07:49 60.4 °F /  15.8 °C 58.4 °F /  14.7 °C 29.89in /  1012.1hPa West 2.0mph /  3.2km/h 7.0mph /  11.3km/h 93% 0.22in /  5.6mm
07:54 60.3 °F /  15.7 °C 58.0 °F /  14.4 °C 29.89in /  1012.1hPa NW 2.0mph /  3.2km/h 9.0mph /  14.5km/h 92% 0.22in /  5.6mm
07:59 60.9 °F /  16.1 °C 58.9 °F /  14.9 °C 29.90in /  1012.4hPa West 3.0mph /  4.8km/h 11.0mph /  17.7km/h 93% 0.22in /  5.6mm
08:04 61.1 °F /  16.2 °C 58.5 °F /  14.7 °C 29.90in /  1012.4hPa WNW 2.0mph /  3.2km/h 11.0mph /  17.7km/h 91% 0.22in /  5.6mm
08:09 60.8 °F /  16 °C 57.9 °F /  14.4 °C 29.90in /  1012.4hPa WNW 1.0mph /  1.6km/h 11.0mph /  17.7km/h 90% 0.22in /  5.6mm
08:14 61.3 °F /  16.3 °C 58.7 °F /  14.8 °C 29.90in /  1012.4hPa Calm   8.0mph /  12.9km/h 91% 0.22in /  5.6mm
08:19 61.8 °F /  16.6 °C 59.1 °F /  15.1 °C 29.90in /  1012.4hPa Calm   3.0mph /  4.8km/h 91% 0.22in /  5.6mm
08:24 61.7 °F /  16.5 °C 58.7 °F /  14.8 °C 29.91in /  1012.8hPa WNW 2.0mph /  3.2km/h 6.0mph /  9.7km/h 90% 0.22in /  5.6mm
08:29 61.5 °F /  16.4 °C 58.2 °F /  14.6 °C 29.91in /  1012.8hPa Calm   6.0mph /  9.7km/h 89% 0.22in /  5.6mm
08:34 61.4 °F /  16.3 °C 58.1 °F /  14.5 °C 29.91in /  1012.8hPa Calm   8.0mph /  12.9km/h 89% 0.22in /  5.6mm
08:39 61.4 °F /  16.3 °C 58.1 °F /  14.5 °C 29.91in /  1012.8hPa WNW 2.0mph /  3.2km/h 8.0mph /  12.9km/h 89% 0.22in /  5.6mm
08:44 61.6 °F /  16.4 °C 58.3 °F /  14.6 °C 29.92in /  1013.1hPa Calm   8.0mph /  12.9km/h 89% 0.22in /  5.6mm
08:49 61.4 °F /  16.3 °C 57.8 °F /  14.3 °C 29.92in /  1013.1hPa Calm   4.0mph /  6.4km/h 88% 0.22in /  5.6mm
08:54 61.3 °F /  16.3 °C 57.7 °F /  14.3 °C 29.92in /  1013.1hPa Calm   6.0mph /  9.7km/h 88% 0.22in /  5.6mm
08:59 61.3 °F /  16.3 °C 57.7 °F /  14.3 °C 29.92in /  1013.1hPa Calm   6.0mph /  9.7km/h 88% 0.22in /  5.6mm
09:04 61.3 °F /  16.3 °C 57.7 °F /  14.3 °C 29.92in /  1013.1hPa Calm   4.0mph /  6.4km/h 88% 0.22in /  5.6mm
09:09 61.5 °F /  16.4 °C 58.2 °F /  14.6 °C 29.92in /  1013.1hPa Calm     89% 0.22in /  5.6mm
09:14 61.8 °F /  16.6 °C 58.5 °F /  14.7 °C 29.92in /  1013.1hPa Calm     89% 0.22in /  5.6mm
09:19 62.1 °F /  16.7 °C 58.5 °F /  14.7 °C 29.92in /  1013.1hPa Calm     88% 0.22in /  5.6mm
09:24 62.3 °F /  16.8 °C 58.7 °F /  14.8 °C 29.92in /  1013.1hPa Calm   5.0mph /  8km/h 88% 0.22in /  5.6mm
09:29 62.5 °F /  16.9 °C 58.6 °F /  14.8 °C 29.92in /  1013.1hPa Calm   5.0mph /  8km/h 87% 0.22in /  5.6mm
09:34 62.7 °F /  17.1 °C 58.5 °F /  14.7 °C 29.92in /  1013.1hPa West 2.0mph /  3.2km/h 6.0mph /  9.7km/h 86% 0.22in /  5.6mm
09:39 62.8 °F /  17.1 °C 58.6 °F /  14.8 °C 29.92in /  1013.1hPa Calm   7.0mph /  11.3km/h 86% 0.22in /  5.6mm
09:44 63.0 °F /  17.2 °C 58.7 °F /  14.8 °C 29.93in /  1013.4hPa Calm   8.0mph /  12.9km/h 86% 0.22in /  5.6mm
09:49 63.1 °F /  17.3 °C 58.5 °F /  14.7 °C 29.93in /  1013.4hPa Calm   8.0mph /  12.9km/h 85% 0.22in /  5.6mm
09:54 62.9 °F /  17.2 °C 58.0 °F /  14.4 °C 29.93in /  1013.4hPa WNW 4.0mph /  6.4km/h 8.0mph /  12.9km/h 84% 0.22in /  5.6mm
09:59 62.8 °F /  17.1 °C 57.6 °F /  14.2 °C 29.93in /  1013.4hPa WNW 4.0mph /  6.4km/h 9.0mph /  14.5km/h 83% 0.22in /  5.6mm
10:04 63.6 °F /  17.6 °C 59.7 °F /  15.4 °C 29.94in /  1013.8hPa WNW 1.0mph /  1.6km/h 9.0mph /  14.5km/h 87% 0.22in /  5.6mm
10:09 64.0 °F /  17.8 °C 58.4 °F /  14.7 °C 29.94in /  1013.8hPa WNW 5.0mph /  8km/h 9.0mph /  14.5km/h 82% 0.22in /  5.6mm
10:14 63.4 °F /  17.4 °C 57.8 °F /  14.3 °C 29.94in /  1013.8hPa NW 4.0mph /  6.4km/h 10.0mph /  16.1km/h 82% 0.22in /  5.6mm
10:19 62.8 °F /  17.1 °C 57.9 °F /  14.4 °C 29.94in /  1013.8hPa Calm   11.0mph /  17.7km/h 84% 0.22in /  5.6mm
10:24 62.4 °F /  16.9 °C 57.5 °F /  14.2 °C 29.94in /  1013.8hPa NW 2.0mph /  3.2km/h 11.0mph /  17.7km/h 84% 0.22in /  5.6mm
10:29 62.2 °F /  16.8 °C 57.3 °F /  14.1 °C 29.95in /  1014.1hPa WNW 1.0mph /  1.6km/h 11.0mph /  17.7km/h 84% 0.22in /  5.6mm
10:34 62.1 °F /  16.7 °C 57.5 °F /  14.2 °C 29.95in /  1014.1hPa NW 1.0mph /  1.6km/h 11.0mph /  17.7km/h 85% 0.22in /  5.6mm
10:39 62.2 °F /  16.8 °C 57.6 °F /  14.2 °C 29.95in /  1014.1hPa WNW 2.0mph /  3.2km/h 9.0mph /  14.5km/h 85% 0.22in /  5.6mm
10:44 62.1 °F /  16.7 °C 57.2 °F /  14 °C 29.95in /  1014.1hPa WNW 1.0mph /  1.6km/h 13.0mph /  20.9km/h 84% 0.22in /  5.6mm
10:49 62.1 °F /  16.7 °C 56.9 °F /  13.8 °C 29.96in /  1014.4hPa NW 5.0mph /  8km/h 14.0mph /  22.5km/h 83% 0.22in /  5.6mm
10:54 61.8 °F /  16.6 °C 56.6 °F /  13.7 °C 29.96in /  1014.4hPa NW 5.0mph /  8km/h 14.0mph /  22.5km/h 83% 0.22in /  5.6mm
10:59 61.6 °F /  16.4 °C 56.7 °F /  13.7 °C 29.96in /  1014.4hPa NW 2.0mph /  3.2km/h 12.0mph /  19.3km/h 84% 0.22in /  5.6mm
11:04 61.5 °F /  16.4 °C 57.0 °F /  13.9 °C 29.97in /  1014.8hPa NW 6.0mph /  9.7km/h 14.0mph /  22.5km/h 85% 0.22in /  5.6mm
11:09 61.6 °F /  16.4 °C 56.7 °F /  13.7 °C 29.97in /  1014.8hPa NW 5.0mph /  8km/h 14.0mph /  22.5km/h 84% 0.22in /  5.6mm
11:14 61.7 °F /  16.5 °C 57.1 °F /  13.9 °C 29.97in /  1014.8hPa NW 2.0mph /  3.2km/h 14.0mph /  22.5km/h 85% 0.22in /  5.6mm
11:19 61.3 °F /  16.3 °C 55.8 °F /  13.2 °C 29.97in /  1014.8hPa WNW 8.0mph /  12.9km/h 15.0mph /  24.1km/h 82% 0.22in /  5.6mm
11:24 60.9 °F /  16.1 °C 56.0 °F /  13.3 °C 29.98in /  1015.1hPa NW 1.0mph /  1.6km/h 15.0mph /  24.1km/h 84% 0.22in /  5.6mm
11:29 60.7 °F /  15.9 °C 56.2 °F /  13.4 °C 29.98in /  1015.1hPa Calm   9.0mph /  14.5km/h 85% 0.22in /  5.6mm
11:34 60.4 °F /  15.8 °C 55.5 °F /  13.1 °C 29.98in /  1015.1hPa WNW 5.0mph /  8km/h 12.0mph /  19.3km/h 84% 0.22in /  5.6mm
11:39 60.1 °F /  15.6 °C 55.3 °F /  12.9 °C 29.99in /  1015.5hPa NW 4.0mph /  6.4km/h 12.0mph /  19.3km/h 84% 0.22in /  5.6mm
11:44 60.0 °F /  15.6 °C 55.5 °F /  13.1 °C 29.99in /  1015.5hPa WNW 2.0mph /  3.2km/h 10.0mph /  16.1km/h 85% 0.22in /  5.6mm
11:49 60.0 °F /  15.6 °C 55.2 °F /  12.9 °C 29.99in /  1015.5hPa NW 2.0mph /  3.2km/h 8.0mph /  12.9km/h 84% 0.22in /  5.6mm
11:54 59.9 °F /  15.5 °C 54.7 °F /  12.6 °C 29.99in /  1015.5hPa NW 3.0mph /  4.8km/h 14.0mph /  22.5km/h 83% 0.22in /  5.6mm
11:59 60.1 °F /  15.6 °C 55.6 °F /  13.1 °C 29.99in /  1015.5hPa WNW 3.0mph /  4.8km/h 14.0mph /  22.5km/h 85% 0.22in /  5.6mm
12:04 60.3 °F /  15.7 °C 55.4 °F /  13 °C 30.00in /  1015.8hPa NW 6.0mph /  9.7km/h 15.0mph /  24.1km/h 84% 0.22in /  5.6mm
12:09 60.7 °F /  15.9 °C 55.8 °F /  13.2 °C 30.00in /  1015.8hPa WNW 4.0mph /  6.4km/h 15.0mph /  24.1km/h 84% 0.22in /  5.6mm
12:14 60.9 °F /  16.1 °C 56.0 °F /  13.3 °C 30.00in /  1015.8hPa NW 4.0mph /  6.4km/h 11.0mph /  17.7km/h 84% 0.22in /  5.6mm
12:19 61.1 °F /  16.2 °C 56.2 °F /  13.4 °C 30.00in /  1015.8hPa NW 2.0mph /  3.2km/h 13.0mph /  20.9km/h 84% 0.22in /  5.6mm
12:24 61.3 °F /  16.3 °C 55.8 °F /  13.2 °C 30.00in /  1015.8hPa NW 3.0mph /  4.8km/h 13.0mph /  20.9km/h 82% 0.22in /  5.6mm
12:29 61.2 °F /  16.2 °C 55.3 °F /  12.9 °C 30.00in /  1015.8hPa WNW 1.0mph /  1.6km/h 10.0mph /  16.1km/h 81% 0.22in /  5.6mm
12:34 61.7 °F /  16.5 °C 56.2 °F /  13.4 °C 30.00in /  1015.8hPa WNW 7.0mph /  11.3km/h 13.0mph /  20.9km/h 82% 0.22in /  5.6mm
12:39 62.5 °F /  16.9 °C 56.6 °F /  13.7 °C 30.00in /  1015.8hPa WNW 7.0mph /  11.3km/h 14.0mph /  22.5km/h 81% 0.22in /  5.6mm
12:44 63.2 °F /  17.3 °C 57.3 °F /  14.1 °C 30.00in /  1015.8hPa NW 4.0mph /  6.4km/h 14.0mph /  22.5km/h 81% 0.22in /  5.6mm
12:49 64.0 °F /  17.8 °C 58.1 °F /  14.5 °C 30.00in /  1015.8hPa NW 2.0mph /  3.2km/h 10.0mph /  16.1km/h 81% 0.22in /  5.6mm
12:54 64.2 °F /  17.9 °C 56.5 °F /  13.6 °C 30.00in /  1015.8hPa NW 6.0mph /  9.7km/h 10.0mph /  16.1km/h 76% 0.22in /  5.6mm
12:59 64.1 °F /  17.8 °C 57.1 °F /  13.9 °C 30.00in /  1015.8hPa NW 4.0mph /  6.4km/h 11.0mph /  17.7km/h 78% 0.22in /  5.6mm
13:04 65.0 °F /  18.3 °C 57.3 °F /  14.1 °C 30.00in /  1015.8hPa WNW 4.0mph /  6.4km/h 11.0mph /  17.7km/h 76% 0.22in /  5.6mm
13:09 65.1 °F /  18.4 °C 57.4 °F /  14.1 °C 30.00in /  1015.8hPa NW 2.0mph /  3.2km/h 14.0mph /  22.5km/h 76% 0.22in /  5.6mm
13:14 64.5 °F /  18.1 °C 57.1 °F /  13.9 °C 30.00in /  1015.8hPa NW 3.0mph /  4.8km/h 14.0mph /  22.5km/h 77% 0.22in /  5.6mm
13:19 64.7 °F /  18.2 °C 57.0 °F /  13.9 °C 30.00in /  1015.8hPa NW 6.0mph /  9.7km/h 14.0mph /  22.5km/h 76% 0.22in /  5.6mm
13:24 65.8 °F /  18.8 °C 58.8 °F /  14.9 °C 30.00in /  1015.8hPa WNW 2.0mph /  3.2km/h 14.0mph /  22.5km/h 78% 0.22in /  5.6mm
13:29 65.9 °F /  18.8 °C 57.0 °F /  13.9 °C 30.01in /  1016.1hPa NW 5.0mph /  8km/h 13.0mph /  20.9km/h 73% 0.22in /  5.6mm
13:34 64.7 °F /  18.2 °C 55.5 °F /  13.1 °C 30.01in /  1016.1hPa NW 6.0mph /  9.7km/h 14.0mph /  22.5km/h 72% 0.22in /  5.6mm
13:39 64.3 °F /  17.9 °C 55.8 °F /  13.2 °C 30.01in /  1016.1hPa WNW 1.0mph /  1.6km/h 14.0mph /  22.5km/h 74% 0.22in /  5.6mm
13:44 64.2 °F /  17.9 °C 55.7 °F /  13.2 °C 30.01in /  1016.1hPa NW 2.0mph /  3.2km/h 16.0mph /  25.7km/h 74% 0.22in /  5.6mm
13:49 64.4 °F /  18 °C 56.3 °F /  13.5 °C 30.01in /  1016.1hPa NW 6.0mph /  9.7km/h 16.0mph /  25.7km/h 75% 0.22in /  5.6mm
13:54 64.8 °F /  18.2 °C 56.7 °F /  13.7 °C 30.01in /  1016.1hPa NW 5.0mph /  8km/h 15.0mph /  24.1km/h 75% 0.22in /  5.6mm
13:59 65.4 °F /  18.6 °C 57.3 °F /  14.1 °C 30.01in /  1016.1hPa WNW 1.0mph /  1.6km/h 15.0mph /  24.1km/h 75% 0.22in /  5.6mm
14:04 65.8 °F /  18.8 °C 57.7 °F /  14.3 °C 30.02in /  1016.5hPa Calm   12.0mph /  19.3km/h 75% 0.22in /  5.6mm
14:09 65.9 °F /  18.8 °C 56.6 °F /  13.7 °C 30.02in /  1016.5hPa NW 1.0mph /  1.6km/h 10.0mph /  16.1km/h 72% 0.22in /  5.6mm
14:14 65.3 °F /  18.5 °C 56.8 °F /  13.8 °C 30.02in /  1016.5hPa NNE 2.0mph /  3.2km/h 9.0mph /  14.5km/h 74% 0.22in /  5.6mm
14:19 64.3 °F /  17.9 °C 55.1 °F /  12.8 °C 30.02in /  1016.5hPa WNW 6.0mph /  9.7km/h 11.0mph /  17.7km/h 72% 0.22in /  5.6mm
14:24 64.0 °F /  17.8 °C 56.3 °F /  13.5 °C 30.02in /  1016.5hPa NNE 1.0mph /  1.6km/h 11.0mph /  17.7km/h 76% 0.22in /  5.6mm
14:29 63.7 °F /  17.6 °C 54.9 °F /  12.7 °C 30.02in /  1016.5hPa Calm   7.0mph /  11.3km/h 73% 0.22in /  5.6mm
14:34 63.8 °F /  17.7 °C 55.4 °F /  13 °C 30.02in /  1016.5hPa WNW 3.0mph /  4.8km/h 10.0mph /  16.1km/h 74% 0.22in /  5.6mm
14:39 63.5 °F /  17.5 °C 55.1 °F /  12.8 °C 30.02in /  1016.5hPa NW 3.0mph /  4.8km/h 10.0mph /  16.1km/h 74% 0.22in /  5.6mm
14:44 63.6 °F /  17.6 °C 55.2 °F /  12.9 °C 30.02in /  1016.5hPa NW 2.0mph /  3.2km/h 10.0mph /  16.1km/h 74% 0.22in /  5.6mm
14:49 64.0 °F /  17.8 °C 54.8 °F /  12.7 °C 30.02in /  1016.5hPa NW 6.0mph /  9.7km/h 13.0mph /  20.9km/h 72% 0.22in /  5.6mm
14:54 65.0 °F /  18.3 °C 56.5 °F /  13.6 °C 30.02in /  1016.5hPa NW 4.0mph /  6.4km/h 13.0mph /  20.9km/h 74% 0.22in /  5.6mm
14:59 66.2 °F /  19 °C 56.9 °F /  13.8 °C 30.02in /  1016.5hPa NW 4.0mph /  6.4km/h 13.0mph /  20.9km/h 72% 0.22in /  5.6mm
15:04 66.4 °F /  19.1 °C 56.7 °F /  13.7 °C 30.02in /  1016.5hPa NNE 1.0mph /  1.6km/h 13.0mph /  20.9km/h 71% 0.22in /  5.6mm
15:09 66.2 °F /  19 °C 56.1 °F /  13.4 °C 30.02in /  1016.5hPa WNW 4.0mph /  6.4km/h 11.0mph /  17.7km/h 70% 0.22in /  5.6mm
15:14 66.1 °F /  18.9 °C 58.0 °F /  14.4 °C 30.03in /  1016.8hPa NW 1.0mph /  1.6km/h 11.0mph /  17.7km/h 75% 0.22in /  5.6mm
15:19 66.3 °F /  19.1 °C 57.8 °F /  14.3 °C 30.03in /  1016.8hPa Calm   9.0mph /  14.5km/h 74% 0.22in /  5.6mm
15:24 66.1 °F /  18.9 °C 55.2 °F /  12.9 °C 30.02in /  1016.5hPa NW 1.0mph /  1.6km/h 7.0mph /  11.3km/h 68% 0.22in /  5.6mm
15:29 66.2 °F /  19 °C 56.5 °F /  13.6 °C 30.03in /  1016.8hPa NNE 1.0mph /  1.6km/h 7.0mph /  11.3km/h 71% 0.22in /  5.6mm
15:34 66.3 °F /  19.1 °C 56.6 °F /  13.7 °C 30.03in /  1016.8hPa NNE 1.0mph /  1.6km/h 6.0mph /  9.7km/h 71% 0.22in /  5.6mm
15:39 66.4 °F /  19.1 °C 55.9 °F /  13.3 °C 30.03in /  1016.8hPa NW 1.0mph /  1.6km/h 7.0mph /  11.3km/h 69% 0.22in /  5.6mm
15:44 67.0 °F /  19.4 °C 56.5 °F /  13.6 °C 30.03in /  1016.8hPa NW 2.0mph /  3.2km/h 8.0mph /  12.9km/h 69% 0.22in /  5.6mm
15:49 67.1 °F /  19.5 °C 56.6 °F /  13.7 °C 30.03in /  1016.8hPa Calm   8.0mph /  12.9km/h 69% 0.22in /  5.6mm
15:54 67.1 °F /  19.5 °C 57.0 °F /  13.9 °C 30.03in /  1016.8hPa Calm   5.0mph /  8km/h 70% 0.22in /  5.6mm
15:59 66.5 °F /  19.2 °C 56.4 °F /  13.6 °C 30.03in /  1016.8hPa North 1.0mph /  1.6km/h 8.0mph /  12.9km/h 70% 0.22in /  5.6mm
16:04 66.7 °F /  19.3 °C 57.4 °F /  14.1 °C 30.03in /  1016.8hPa Calm   8.0mph /  12.9km/h 72% 0.22in /  5.6mm
16:09 67.0 °F /  19.4 °C 55.7 °F /  13.2 °C 30.03in /  1016.8hPa NNE 1.0mph /  1.6km/h 8.0mph /  12.9km/h 67% 0.22in /  5.6mm
16:14 67.3 °F /  19.6 °C 57.2 °F /  14 °C 30.04in /  1017.2hPa Calm   8.0mph /  12.9km/h 70% 0.22in /  5.6mm
16:19 67.8 °F /  19.9 °C 56.5 °F /  13.6 °C 30.04in /  1017.2hPa NE 1.0mph /  1.6km/h 10.0mph /  16.1km/h 67% 0.22in /  5.6mm
16:24 68.0 °F /  20 °C 58.6 °F /  14.8 °C 30.04in /  1017.2hPa Calm   10.0mph /  16.1km/h 72% 0.22in /  5.6mm
16:29 68.5 °F /  20.3 °C 57.1 °F /  13.9 °C 30.04in /  1017.2hPa Calm   7.0mph /  11.3km/h 67% 0.22in /  5.6mm
16:34 69.3 °F /  20.7 °C 57.0 °F /  13.9 °C 30.04in /  1017.2hPa NW 2.0mph /  3.2km/h 10.0mph /  16.1km/h 65% 0.22in /  5.6mm
16:39 70.0 °F /  21.1 °C 58.1 °F /  14.5 °C 30.04in /  1017.2hPa Calm   10.0mph /  16.1km/h 66% 0.22in /  5.6mm
16:44 69.9 °F /  21.1 °C 56.7 °F /  13.7 °C 30.05in /  1017.5hPa NNE 1.0mph /  1.6km/h 6.0mph /  9.7km/h 63% 0.22in /  5.6mm
16:49 69.4 °F /  20.8 °C 57.1 °F /  13.9 °C 30.05in /  1017.5hPa Calm   11.0mph /  17.7km/h 65% 0.22in /  5.6mm
16:54 70.2 °F /  21.2 °C 57.9 °F /  14.4 °C 30.05in /  1017.5hPa WNW 3.0mph /  4.8km/h 13.0mph /  20.9km/h 65% 0.22in /  5.6mm
16:59 70.0 °F /  21.1 °C 56.8 °F /  13.8 °C 30.05in /  1017.5hPa NW 3.0mph /  4.8km/h 13.0mph /  20.9km/h 63% 0.22in /  5.6mm
17:04 70.0 °F /  21.1 °C 56.4 °F /  13.6 °C 30.05in /  1017.5hPa NNE 1.0mph /  1.6km/h 8.0mph /  12.9km/h 62% 0.22in /  5.6mm
17:09 70.2 °F /  21.2 °C 56.1 °F /  13.4 °C 30.05in /  1017.5hPa NW 2.0mph /  3.2km/h 9.0mph /  14.5km/h 61% 0.22in /  5.6mm
17:14 70.0 °F /  21.1 °C 55.9 °F /  13.3 °C 30.05in /  1017.5hPa Calm   9.0mph /  14.5km/h 61% 0.22in /  5.6mm
17:19 69.7 °F /  20.9 °C 54.7 °F /  12.6 °C 30.05in /  1017.5hPa NW 4.0mph /  6.4km/h 12.0mph /  19.3km/h 59% 0.22in /  5.6mm
17:24 69.7 °F /  20.9 °C 56.6 °F /  13.7 °C 30.05in /  1017.5hPa Calm   12.0mph /  19.3km/h 63% 0.22in /  5.6mm
17:29 68.5 °F /  20.3 °C 56.3 °F /  13.5 °C 30.05in /  1017.5hPa Calm   9.0mph /  14.5km/h 65% 0.22in /  5.6mm
17:34 67.5 °F /  19.7 °C 54.9 °F /  12.7 °C 30.05in /  1017.5hPa Calm   9.0mph /  14.5km/h 64% 0.22in /  5.6mm
17:39 67.0 °F /  19.4 °C 54.4 °F /  12.4 °C 30.05in /  1017.5hPa Calm   3.0mph /  4.8km/h 64% 0.22in /  5.6mm
17:44 66.3 °F /  19.1 °C 54.6 °F /  12.6 °C 30.05in /  1017.5hPa Calm   4.0mph /  6.4km/h 66% 0.22in /  5.6mm
17:49 66.5 °F /  19.2 °C 55.6 °F /  13.1 °C 30.05in /  1017.5hPa Calm   4.0mph /  6.4km/h 68% 0.22in /  5.6mm
17:54 66.2 °F /  19 °C 54.5 °F /  12.5 °C 30.06in /  1017.8hPa NW 2.0mph /  3.2km/h 8.0mph /  12.9km/h 66% 0.22in /  5.6mm
17:59 66.5 °F /  19.2 °C 55.6 °F /  13.1 °C 30.06in /  1017.8hPa Calm   8.0mph /  12.9km/h 68% 0.22in /  5.6mm
18:04 67.6 °F /  19.8 °C 55.0 °F /  12.8 °C 30.06in /  1017.8hPa Calm   6.0mph /  9.7km/h 64% 0.22in /  5.6mm
18:09 67.8 °F /  19.9 °C 55.2 °F /  12.9 °C 30.06in /  1017.8hPa Calm   5.0mph /  8km/h 64% 0.22in /  5.6mm
18:14 68.2 °F /  20.1 °C 55.1 °F /  12.8 °C 30.06in /  1017.8hPa Calm   5.0mph /  8km/h 63% 0.22in /  5.6mm
18:19 68.6 °F /  20.3 °C 56.0 °F /  13.3 °C 30.06in /  1017.8hPa Calm   5.0mph /  8km/h 64% 0.22in /  5.6mm
18:24 68.5 °F /  20.3 °C 55.0 °F /  12.8 °C 30.06in /  1017.8hPa Calm   5.0mph /  8km/h 62% 0.22in /  5.6mm
18:29 68.1 °F /  20.1 °C 54.6 °F /  12.6 °C 30.06in /  1017.8hPa Calm   7.0mph /  11.3km/h 62% 0.22in /  5.6mm
18:34 68.0 °F /  20 °C 54.5 °F /  12.5 °C 30.06in /  1017.8hPa Calm   7.0mph /  11.3km/h 62% 0.22in /  5.6mm
18:39 67.5 °F /  19.7 °C 53.6 °F /  12 °C 30.06in /  1017.8hPa Calm   7.0mph /  11.3km/h 61% 0.22in /  5.6mm
18:44 67.2 °F /  19.6 °C 54.2 °F /  12.3 °C 30.07in /  1018.2hPa Calm   5.0mph /  8km/h 63% 0.22in /  5.6mm
18:49 67.0 °F /  19.4 °C 54.9 °F /  12.7 °C 30.07in /  1018.2hPa Calm   7.0mph /  11.3km/h 65% 0.22in /  5.6mm
18:54 67.0 °F /  19.4 °C 53.6 °F /  12 °C 30.07in /  1018.2hPa WNW 4.0mph /  6.4km/h 9.0mph /  14.5km/h 62% 0.22in /  5.6mm
18:59 67.0 °F /  19.4 °C 54.4 °F /  12.4 °C 30.07in /  1018.2hPa Calm   9.0mph /  14.5km/h 64% 0.22in /  5.6mm
19:04 67.2 °F /  19.6 °C 54.6 °F /  12.6 °C 30.07in /  1018.2hPa Calm     64% 0.22in /  5.6mm
19:09 67.1 °F /  19.5 °C 54.5 °F /  12.5 °C 30.07in /  1018.2hPa Calm   1.0mph /  1.6km/h 64% 0.22in /  5.6mm
19:14 66.9 °F /  19.4 °C 53.9 °F /  12.2 °C 30.07in /  1018.2hPa Calm   1.0mph /  1.6km/h 63% 0.22in /  5.6mm
19:19 66.8 °F /  19.3 °C 54.7 °F /  12.6 °C 30.08in /  1018.5hPa Calm   1.0mph /  1.6km/h 65% 0.22in /  5.6mm
19:24 66.6 °F /  19.2 °C 53.6 °F /  12 °C 30.08in /  1018.5hPa WNW 1.0mph /  1.6km/h 8.0mph /  12.9km/h 63% 0.22in /  5.6mm
19:29 65.9 °F /  18.8 °C 53.0 °F /  11.7 °C 30.08in /  1018.5hPa NW 1.0mph /  1.6km/h 9.0mph /  14.5km/h 63% 0.22in /  5.6mm
19:34 65.5 °F /  18.6 °C 53.4 °F /  11.9 °C 30.08in /  1018.5hPa Calm   9.0mph /  14.5km/h 65% 0.22in /  5.6mm
19:39 65.5 °F /  18.6 °C 53.9 °F /  12.2 °C 30.08in /  1018.5hPa Calm   5.0mph /  8km/h 66% 0.22in /  5.6mm
19:44 65.4 °F /  18.6 °C 54.2 °F /  12.3 °C 30.08in /  1018.5hPa Calm     67% 0.22in /  5.6mm
19:49 65.0 °F /  18.3 °C 53.8 °F /  12.1 °C 30.08in /  1018.5hPa Calm   2.0mph /  3.2km/h 67% 0.22in /  5.6mm
19:54 64.8 °F /  18.2 °C 54.0 °F /  12.2 °C 30.08in /  1018.5hPa Calm   2.0mph /  3.2km/h 68% 0.22in /  5.6mm
19:59 64.4 °F /  18 °C 53.2 °F /  11.8 °C 30.09in /  1018.8hPa Calm     67% 0.22in /  5.6mm
20:04 64.1 °F /  17.8 °C 53.7 °F /  12.1 °C 30.09in /  1018.8hPa Calm   1.0mph /  1.6km/h 69% 0.22in /  5.6mm
20:09 63.7 °F /  17.6 °C 53.3 °F /  11.8 °C 30.09in /  1018.8hPa Calm   1.0mph /  1.6km/h 69% 0.22in /  5.6mm
20:14 63.1 °F /  17.3 °C 52.8 °F /  11.6 °C 30.09in /  1018.8hPa Calm     69% 0.22in /  5.6mm
20:24 61.5 °F /  16.4 °C 52.4 °F /  11.3 °C 30.09in /  1018.8hPa Calm     72% 0.22in /  5.6mm
20:29 60.8 °F /  16 °C 52.5 °F /  11.4 °C 30.09in /  1018.8hPa Calm     74% 0.22in /  5.6mm
20:34 60.1 °F /  15.6 °C 52.2 °F /  11.2 °C 30.09in /  1018.8hPa Calm     75% 0.22in /  5.6mm
20:39 59.1 °F /  15.1 °C 51.9 °F /  11.1 °C 30.09in /  1018.8hPa Calm     77% 0.22in /  5.6mm
20:44 58.4 °F /  14.7 °C 51.6 °F /  10.9 °C 30.09in /  1018.8hPa Calm     78% 0.22in /  5.6mm
20:49 57.5 °F /  14.2 °C 51.4 °F /  10.8 °C 30.10in /  1019.2hPa Calm     80% 0.22in /  5.6mm
20:54 56.8 °F /  13.8 °C 51.0 °F /  10.6 °C 30.10in /  1019.2hPa Calm     81% 0.22in /  5.6mm
20:59 56.2 °F /  13.4 °C 50.8 °F /  10.4 °C 30.10in /  1019.2hPa Calm     82% 0.22in /  5.6mm
21:04 55.8 °F /  13.2 °C 50.7 °F /  10.4 °C 30.10in /  1019.2hPa Calm     83% 0.22in /  5.6mm
21:09 55.5 °F /  13.1 °C 50.7 °F /  10.4 °C 30.10in /  1019.2hPa Calm     84% 0.22in /  5.6mm
21:14 55.3 °F /  12.9 °C 50.6 °F /  10.3 °C 30.10in /  1019.2hPa Calm     84% 0.22in /  5.6mm
21:19 54.9 °F /  12.7 °C 50.5 °F /  10.3 °C 30.10in /  1019.2hPa Calm     85% 0.22in /  5.6mm
21:24 54.6 °F /  12.6 °C 50.2 °F /  10.1 °C 30.10in /  1019.2hPa Calm     85% 0.22in /  5.6mm
21:29 54.6 °F /  12.6 °C 50.5 °F /  10.3 °C 30.11in /  1019.5hPa Calm     86% 0.22in /  5.6mm
21:34 54.5 °F /  12.5 °C 50.7 °F /  10.4 °C 30.11in /  1019.5hPa Calm     87% 0.22in /  5.6mm
21:39 54.3 °F /  12.4 °C 50.5 °F /  10.3 °C 30.11in /  1019.5hPa Calm     87% 0.22in /  5.6mm
21:44 54.2 °F /  12.3 °C 50.4 °F /  10.2 °C 30.11in /  1019.5hPa Calm     87% 0.22in /  5.6mm
21:49 54.2 °F /  12.3 °C 50.7 °F /  10.4 °C 30.12in /  1019.9hPa Calm     88% 0.22in /  5.6mm
21:54 54.3 °F /  12.4 °C 50.8 °F /  10.4 °C 30.11in /  1019.5hPa Calm     88% 0.22in /  5.6mm
22:04 54.0 °F /  12.2 °C 50.2 °F /  10.1 °C 30.11in /  1019.5hPa Calm     87% 0.22in /  5.6mm
22:09 54.1 °F /  12.3 °C 50.3 °F /  10.2 °C 30.11in /  1019.5hPa Calm     87% 0.22in /  5.6mm
22:14 54.2 °F /  12.3 °C 50.4 °F /  10.2 °C 30.11in /  1019.5hPa Calm     87% 0.22in /  5.6mm
22:19 54.2 °F /  12.3 °C 50.1 °F /  10.1 °C 30.11in /  1019.5hPa Calm     86% 0.22in /  5.6mm
22:24 54.3 °F /  12.4 °C 50.2 °F /  10.1 °C 30.11in /  1019.5hPa Calm     86% 0.22in /  5.6mm
22:29 54.4 °F /  12.4 °C 50.3 °F /  10.2 °C 30.11in /  1019.5hPa Calm     86% 0.22in /  5.6mm
22:34 54.6 °F /  12.6 °C 50.2 °F /  10.1 °C 30.11in /  1019.5hPa Calm     85% 0.22in /  5.6mm
22:39 55.1 °F /  12.8 °C 50.4 °F /  10.2 °C 30.12in /  1019.9hPa Calm     84% 0.22in /  5.6mm
22:44 55.4 °F /  13 °C 50.3 °F /  10.2 °C 30.12in /  1019.9hPa Calm     83% 0.22in /  5.6mm
22:49 55.7 °F /  13.2 °C 50.3 °F /  10.2 °C 30.12in /  1019.9hPa Calm     82% 0.22in /  5.6mm
22:54 55.9 °F /  13.3 °C 50.5 °F /  10.3 °C 30.12in /  1019.9hPa Calm     82% 0.22in /  5.6mm
22:59 55.9 °F /  13.3 °C 50.2 °F /  10.1 °C 30.12in /  1019.9hPa Calm     81% 0.22in /  5.6mm
23:04 55.9 °F /  13.3 °C 50.2 °F /  10.1 °C 30.12in /  1019.9hPa Calm     81% 0.22in /  5.6mm
23:09 55.6 °F /  13.1 °C 50.2 °F /  10.1 °C 30.12in /  1019.9hPa Calm   1.0mph /  1.6km/h 82% 0.22in /  5.6mm
23:14 55.4 °F /  13 °C 50.3 °F /  10.2 °C 30.12in /  1019.9hPa Calm   1.0mph /  1.6km/h 83% 0.22in /  5.6mm
23:19 55.4 °F /  13 °C 50.3 °F /  10.2 °C 30.12in /  1019.9hPa Calm     83% 0.22in /  5.6mm
23:24 55.3 °F /  12.9 °C 49.9 °F /  9.9 °C 30.12in /  1019.9hPa Calm     82% 0.22in /  5.6mm
23:34 54.5 °F /  12.5 °C 49.4 °F /  9.7 °C 30.12in /  1019.9hPa Calm     83% 0.22in /  5.6mm
23:44 53.6 °F /  12 °C 48.9 °F /  9.4 °C 30.12in /  1019.9hPa Calm     84% 0.22in /  5.6mm
23:49 53.4 °F /  11.9 °C 49.0 °F /  9.4 °C 30.12in /  1019.9hPa Calm     85% 0.22in /  5.6mm
23:54 53.3 °F /  11.8 °C 48.9 °F /  9.4 °C 30.12in /  1019.9hPa Calm     85% 0.22in /  5.6mm
23:59 53.2 °F /  11.8 °C 48.8 °F /  9.3 °C 30.12in /  1019.9hPa Calm     85% 0.22in /  5.6mm
Westford Weather
Compliments of Weather Underground

 
 
Current Radar Loop:

Copyright © WestfordWeather.net 2007-2014. All rights reserved.